Terminal Aerodrome Forecast
Issued by NWS

Home | Current Version | Previous Version | Graphics & Text | Print | Product List | Glossary On
Versions: 1 2 3 4 5 6 7 8 9 10 11 12 13 14 15 16 17 18 19 20 21 22 23 24
000
FTUS43 KLOT 200528
TAFORD
TAF
KORD 200528Z 2006/2112 21015G22KT P6SM OVC250 WS020/23050KT
     FM200800 23011KT P6SM OVC250
     FM202200 23008KT P6SM BKN025
     FM210200 22006KT 5SM BR OVC012
     FM210400 21005KT 3SM BR OVC006
     FM210900 20004KT 2SM -DZ BR OVC004=

USA.gov is the U.S. government's official web portal to all federal, state and local government web resources and services.